Time;durP1;ratioP1;P1;durP2;ratioP2;P2;SDS_P1;SDS_P2;PMS_P1;PMS_P2;Temp;Humidity;BMP_temperature;BMP_pressure;BME280_temperature;BME280_humidity;BME280_pressure;Samples;Min_cycle;Max_cycle;Signal;HPM_P1;HPM_P2
2023/09/23 00:02:57;;;;;;;;;;;;;;;19.38;61.51;98852.56;10248621;28;837;-76
2023/09/23 00:07:53;;;;;;;;;;;;;;;19.35;61.50;98853.59;10248443;28;872;-76
2023/09/23 00:12:49;;;;;;;;;;;;;;;19.36;61.52;98865.88;10247540;28;1906;-76
2023/09/23 00:17:46;;;;;;;;;;;;;;;19.35;61.55;98866.81;10247314;28;899;-76
2023/09/23 00:22:42;;;;;;;;;;;;;;;19.34;61.60;98883.63;10247082;28;1013;-75
2023/09/23 00:27:39;;;;;;;;;;;;;;;19.34;61.51;98878.34;10247090;28;796;-76
2023/09/23 00:32:37;;;;;;;;;;;;;;;19.33;61.50;98884.56;10247272;28;1951;-75
2023/09/23 00:37:33;;;;;;;;;;;;;;;19.31;61.59;98885.59;10246333;28;1182;-75
2023/09/23 00:42:30;;;;;;;;;;;;;;;19.32;61.62;98895.22;10246434;28;814;-76
2023/09/23 00:47:26;;;;;;;;;;;;;;;19.31;61.50;98896.16;10245962;28;875;-76
2023/09/23 00:52:21;;;;;;;;;;;;;;;19.31;61.50;98896.16;10245356;28;1906;-76
2023/09/23 00:57:17;;;;;;;;;;;;;;;19.29;61.59;98893.63;10245792;28;791;-77
2023/09/23 01:02:13;;;;;;;;;;;;;;;19.30;61.64;98902.41;10245915;28;864;-73
2023/09/23 01:07:09;;;;;;;;;;;;;;;19.29;61.59;98912.13;10245226;28;986;-74
2023/09/23 01:12:08;;;;;;;;;;;;;;;19.27;61.60;98906.94;10245262;28;1956;-74
2023/09/23 01:17:10;;;;;;;;;;;;;;;19.26;61.70;98907.03;10245091;28;914;-73
2023/09/23 01:22:05;;;;;;;;;;;;;;;19.25;61.51;98916.75;10244946;28;824;-74
2023/09/23 01:27:03;;;;;;;;;;;;;;;19.25;61.56;98924.66;10245664;28;870;-75
2023/09/23 01:32:02;;;;;;;;;;;;;;;19.23;61.59;98936.28;10245176;28;1894;-75
2023/09/23 01:36:58;;;;;;;;;;;;;;;19.23;61.65;98928.34;10245040;28;1344;-74
2023/09/23 01:41:54;;;;;;;;;;;;;;;19.24;61.63;98935.34;10244688;28;806;-74
2023/09/23 01:46:50;;;;;;;;;;;;;;;19.23;61.60;98944.19;10244287;28;771;-75
2023/09/23 01:51:46;;;;;;;;;;;;;;;19.22;61.52;98955.72;10244042;28;1898;-74
2023/09/23 01:56:42;;;;;;;;;;;;;;;19.22;61.64;98963.66;10244670;28;865;-74
2023/09/23 02:01:40;;;;;;;;;;;;;;;19.21;61.51;98964.59;10254865;28;755;-75
2023/09/23 02:06:40;;;;;;;;;;;;;;;19.19;61.55;98964.69;10257951;28;894;-74
2023/09/23 02:11:37;;;;;;;;;;;;;;;19.18;61.53;98973.56;10257198;28;1890;-74
2023/09/23 02:16:33;;;;;;;;;;;;;;;19.17;61.51;98984.22;10257747;28;910;-75
2023/09/23 02:21:30;;;;;;;;;;;;;;;19.16;61.64;98979.88;10257037;28;920;-74
2023/09/23 02:26:27;;;;;;;;;;;;;;;19.14;61.61;98992.34;10257332;28;837;-74
2023/09/23 02:31:23;;;;;;;;;;;;;;;19.14;61.45;99003.75;10257237;28;1949;-74
2023/09/23 02:36:19;;;;;;;;;;;;;;;19.13;61.49;99002.06;10257439;28;838;-75
2023/09/23 02:41:16;;;;;;;;;;;;;;;19.14;61.47;98997.63;10257052;28;1263;-75
2023/09/23 02:46:14;;;;;;;;;;;;;;;19.12;61.53;99002.13;10256530;28;966;-75
2023/09/23 02:51:12;;;;;;;;;;;;;;;19.13;61.68;99011.78;10256424;28;1902;-74
2023/09/23 02:56:08;;;;;;;;;;;;;;;19.11;61.52;99026.88;10257142;28;847;-75
2023/09/23 03:01:05;;;;;;;;;;;;;;;19.11;61.60;99026.88;10256377;28;845;-74
2023/09/23 03:06:03;;;;;;;;;;;;;;;19.08;61.57;99030.53;10256849;28;831;-74
2023/09/23 03:11:02;;;;;;;;;;;;;;;19.08;61.45;99037.63;10253517;28;1890;-74
2023/09/23 03:16:08;;;;;;;;;;;;;;;19.06;61.50;99045.63;10249806;28;924;-75
2023/09/23 03:21:08;;;;;;;;;;;;;;;19.07;61.65;99042.03;10250178;28;841;-74
2023/09/23 03:26:04;;;;;;;;;;;;;;;19.06;61.61;99056.19;10249924;28;894;-74
2023/09/23 03:31:00;;;;;;;;;;;;;;;19.05;61.57;99047.41;10248449;28;1894;-74
2023/09/23 03:35:56;;;;;;;;;;;;;;;19.06;61.53;99053.53;10249138;28;762;-74
2023/09/23 03:40:52;;;;;;;;;;;;;;;19.04;61.71;99058.91;10250071;28;1318;-74
2023/09/23 03:45:48;;;;;;;;;;;;;;;19.02;61.74;99058.16;10248600;28;886;-75
2023/09/23 03:50:44;;;;;;;;;;;;;;;19.01;61.63;99056.44;10248993;28;1914;-74
2023/09/23 03:55:39;;;;;;;;;;;;;;;19.00;61.68;99054.75;10247769;28;980;-74
2023/09/23 04:00:35;;;;;;;;;;;;;;;19.00;61.56;99064.47;10248130;28;811;-75
2023/09/23 04:05:31;;;;;;;;;;;;;;;19.00;61.54;99065.31;10248315;28;885;-75
2023/09/23 04:10:27;;;;;;;;;;;;;;;18.99;61.57;99073.31;10247694;28;1961;-74
2023/09/23 04:15:26;;;;;;;;;;;;;;;18.98;61.59;99072.47;10247507;28;802;-75
2023/09/23 04:20:22;;;;;;;;;;;;;;;18.98;61.70;99082.19;10247392;28;953;-74
2023/09/23 04:25:21;;;;;;;;;;;;;;;18.97;61.62;99086.66;10246628;28;873;-74
2023/09/23 04:30:17;;;;;;;;;;;;;;;18.96;61.70;99087.56;10247173;28;1894;-74
2023/09/23 04:35:14;;;;;;;;;;;;;;;18.95;61.70;99099.09;10246723;28;886;-71
2023/09/23 04:40:10;;;;;;;;;;;;;;;18.94;61.67;99096.50;10246760;28;1287;-72
2023/09/23 04:45:06;;;;;;;;;;;;;;;18.95;61.69;99106.16;10247001;28;1034;-71
2023/09/23 04:50:04;;;;;;;;;;;;;;;18.93;61.67;99111.50;10246103;28;1975;-72
2023/09/23 04:55:00;;;;;;;;;;;;;;;18.93;61.84;99114.16;10245913;28;907;-72
2023/09/23 04:59:57;;;;;;;;;;;;;;;18.91;61.65;99118.66;10245650;28;785;-71
2023/09/23 05:04:53;;;;;;;;;;;;;;;18.91;61.50;99134.50;10245510;28;1696;-71
2023/09/23 05:09:49;;;;;;;;;;;;;;;18.92;61.74;99140.66;10244787;28;1890;-70
2023/09/23 05:14:46;;;;;;;;;;;;;;;18.89;61.59;99140.81;10245588;28;759;-70
2023/09/23 05:19:42;;;;;;;;;;;;;;;18.89;61.57;99157.53;10245132;28;814;-72
2023/09/23 05:24:38;;;;;;;;;;;;;;;18.87;61.67;99156.78;10244988;28;762;-70
2023/09/23 05:29:34;;;;;;;;;;;;;;;18.88;61.75;99170.81;10244670;28;1968;-70
2023/09/23 05:34:30;;;;;;;;;;;;;;;18.86;61.63;99175.34;10243765;28;878;-71
2023/09/23 05:39:26;;;;;;;;;;;;;;;18.86;61.79;99199.94;10243572;28;1240;-71
2023/09/23 05:44:23;;;;;;;;;;;;;;;18.84;61.78;99207.13;10244620;28;833;-71
2023/09/23 05:49:19;;;;;;;;;;;;;;;18.82;61.66;99215.13;10244275;28;1906;-72
2023/09/23 05:54:15;;;;;;;;;;;;;;;18.81;61.60;99217.84;10244961;28;846;-71
2023/09/23 05:59:11;;;;;;;;;;;;;;;18.79;61.59;99230.28;10244395;28;841;-71
2023/09/23 06:04:09;;;;;;;;;;;;;;;18.78;61.68;99245.25;10243842;28;957;-71
2023/09/23 06:09:08;;;;;;;;;;;;;;;18.76;61.79;99259.50;10244367;28;1890;-72
2023/09/23 06:14:04;;;;;;;;;;;;;;;18.73;61.84;99265.78;10244025;28;834;-73
2023/09/23 06:19:00;;;;;;;;;;;;;;;18.74;61.49;99278.03;10244299;28;909;-76
2023/09/23 06:23:56;;;;;;;;;;;;;;;18.78;61.59;99286.66;10243552;28;781;-73
2023/09/23 06:28:52;;;;;;;;;;;;;;;18.77;61.42;99284.97;10242882;28;835;-73
2023/09/23 06:33:48;;;;;;;;;;;;;;;18.74;61.50;99285.94;10243419;28;1894;-72
2023/09/23 06:38:44;;;;;;;;;;;;;;;18.74;61.50;99295.66;10243220;28;1394;-72
2023/09/23 06:43:40;;;;;;;;;;;;;;;18.73;61.44;99299.22;10243416;28;1020;-71
2023/09/23 06:48:36;;;;;;;;;;;;;;;18.72;61.63;99310.72;10250219;28;951;-69
2023/09/23 06:53:31;;;;;;;;;;;;;;;18.73;61.53;99320.34;10247832;28;1918;-77
2023/09/23 06:58:27;;;;;;;;;;;;;;;18.73;61.36;99325.63;10249976;28;758;-77
2023/09/23 07:03:23;;;;;;;;;;;;;;;18.71;61.36;99338.91;10248857;28;921;-72
2023/09/23 07:08:19;;;;;;;;;;;;;;;18.70;61.48;99346.91;10250074;28;832;-75
2023/09/23 07:13:15;;;;;;;;;;;;;;;18.70;61.52;99362.75;10248584;28;1894;-79
2023/09/23 07:18:11;;;;;;;;;;;;;;;18.67;61.30;99369.03;10249525;28;776;-74
2023/09/23 07:23:07;;;;;;;;;;;;;;;18.67;61.48;99373.47;10248794;28;767;-75
2023/09/23 07:28:03;;;;;;;;;;;;;;;18.65;61.32;99362.13;10250181;28;862;-75
2023/09/23 07:32:59;;;;;;;;;;;;;;;18.67;61.21;99384.03;10248859;28;1897;-74
2023/09/23 07:37:55;;;;;;;;;;;;;;;18.65;61.30;99388.53;10248694;28;1336;-77
2023/09/23 07:42:51;;;;;;;;;;;;;;;18.65;61.21;99397.31;10248389;28;806;-75
2023/09/23 07:47:47;;;;;;;;;;;;;;;18.65;61.30;99407.88;10248033;28;846;-76
2023/09/23 07:52:43;;;;;;;;;;;;;;;18.66;61.28;99406.09;10247897;28;1965;-77
2023/09/23 07:57:39;;;;;;;;;;;;;;;18.66;61.15;99411.38;10246835;28;758;-79
2023/09/23 08:02:35;;;;;;;;;;;;;;;18.66;61.21;99414.88;10248038;28;873;-78
2023/09/23 08:07:31;;;;;;;;;;;;;;;18.67;61.02;99423.63;10247725;28;761;-74
2023/09/23 08:12:28;;;;;;;;;;;;;;;18.67;61.09;99439.47;10248271;28;1906;-78
2023/09/23 08:17:24;;;;;;;;;;;;;;;18.65;61.06;99441.34;10248384;28;819;-79
2023/09/23 08:22:20;;;;;;;;;;;;;;;18.66;61.12;99456.25;10247875;28;826;-76
2023/09/23 08:27:16;;;;;;;;;;;;;;;18.66;61.09;99464.19;10246981;28;955;-79
2023/09/23 08:32:12;;;;;;;;;;;;;;;18.65;61.04;99465.09;10247906;28;1901;-80
2023/09/23 08:37:08;;;;;;;;;;;;;;;18.61;61.16;99478.47;10246695;28;1312;-83
2023/09/23 08:42:04;;;;;;;;;;;;;;;18.62;60.84;99484.59;10246643;28;905;-83
2023/09/23 08:47:00;;;;;;;;;;;;;;;18.66;61.07;99480.03;10228223;28;1015;-74
2023/09/23 08:51:56;;;;;;;;;;;;;;;18.66;60.80;99483.50;10204566;28;1971;-78
2023/09/23 08:56:52;;;;;;;;;;;;;;;18.70;60.75;99489.47;10205240;28;890;-72
2023/09/23 09:01:48;;;;;;;;;;;;;;;18.72;61.14;99498.19;10206250;28;862;-72
2023/09/23 09:06:44;;;;;;;;;;;;;;;18.74;61.03;99504.25;10205061;28;866;-72
2023/09/23 09:11:40;;;;;;;;;;;;;;;18.71;61.27;99507.03;10204949;28;1902;-72
2023/09/23 09:16:37;;;;;;;;;;;;;;;18.71;61.36;99491.19;10204672;28;883;-71
2023/09/23 09:21:34;;;;;;;;;;;;;;;18.72;61.43;99501.66;10204893;28;931;-74
2023/09/23 09:26:30;;;;;;;;;;;;;;;18.71;61.40;99507.88;10203928;28;1255;-75
2023/09/23 09:31:26;;;;;;;;;;;;;;;18.66;61.49;99509.06;10204589;28;2135;-77
2023/09/23 09:36:23;;;;;;;;;;;;;;;18.65;61.43;99517.91;10204676;28;1104;-76
2023/09/23 09:41:21;;;;;;;;;;;;;;;18.65;61.25;99526.66;10203801;28;1346;-81
2023/09/23 09:46:17;;;;;;;;;;;;;;;18.67;61.35;99526.59;10204523;28;844;-77
2023/09/23 09:51:15;;;;;;;;;;;;;;;18.67;61.07;99526.59;10203774;28;1967;-77
2023/09/23 09:56:11;;;;;;;;;;;;;;;18.68;60.93;99541.50;10203593;28;810;-77
2023/09/23 10:01:10;;;;;;;;;;;;;;;18.69;60.96;99548.50;10203558;28;795;-76
2023/09/23 10:06:07;;;;;;;;;;;;;;;18.67;60.88;99542.44;10203378;28;895;-78
2023/09/23 10:11:04;;;;;;;;;;;;;;;18.65;60.90;99545.13;10203842;28;1965;-79
2023/09/23 10:16:00;;;;;;;;;;;;;;;18.69;60.84;99548.50;10203692;28;882;-77
2023/09/23 10:20:56;;;;;;;;;;;;;;;18.69;60.72;99553.78;10206119;28;803;-76
2023/09/23 10:25:52;;;;;;;;;;;;;;;18.62;60.78;99548.78;10242761;28;1251;-76
2023/09/23 10:30:48;;;;;;;;;;;;;;;18.58;61.19;99563.09;10250868;28;1890;-77
2023/09/23 10:35:44;;;;;;;;;;;;;;;18.57;61.10;99584.25;10234015;28;719;-76
2023/09/23 10:40:40;;;;;;;;;;;;;;;18.55;60.94;99581.72;10251073;28;1296;-77
2023/09/23 10:45:36;;;;;;;;;;;;;;;18.55;61.14;99581.72;10251345;28;1176;-76
2023/09/23 10:50:32;;;;;;;;;;;;;;;18.53;61.13;99586.22;10250615;28;1973;-77
2023/09/23 10:55:29;;;;;;;;;;;;;;;18.54;61.03;99579.13;10249890;28;1113;-83
2023/09/23 11:00:25;;;;;;;;;;;;;;;18.53;61.03;99572.16;10249849;28;899;-79
2023/09/23 11:05:21;;;;;;;;;;;;;;;18.54;61.12;99582.63;10250214;28;926;-77
2023/09/23 11:10:18;;;;;;;;;;;;;;;18.59;60.82;99575.34;10250092;28;1914;-78
2023/09/23 11:15:14;;;;;;;;;;;;;;;18.58;60.71;99581.56;10250210;28;910;-78
2023/09/23 11:20:10;;;;;;;;;;;;;;;18.60;60.83;99582.34;10249165;28;946;-79
2023/09/23 11:25:09;;;;;;;;;;;;;;;18.59;60.75;99604.38;10249964;28;808;-79
2023/09/23 11:30:05;;;;;;;;;;;;;;;18.58;60.92;99609.75;10248664;28;1964;-79
2023/09/23 11:35:00;;;;;;;;;;;;;;;18.53;60.68;99617.88;10248409;28;964;-80
2023/09/23 11:39:56;;;;;;;;;;;;;;;18.52;60.78;99618.81;10248430;28;1090;-80
2023/09/23 11:44:52;;;;;;;;;;;;;;;18.57;60.40;99626.50;10248802;28;919;-82
2023/09/23 11:49:48;;;;;;;;;;;;;;;18.61;60.20;99628.91;10248327;28;1968;-80
2023/09/23 11:54:45;;;;;;;;;;;;;;;18.62;60.41;99625.34;10248329;28;852;-80
2023/09/23 11:59:42;;;;;;;;;;;;;;;18.61;60.47;99644.75;10247799;28;834;-81
2023/09/23 12:04:38;;;;;;;;;;;;;;;18.59;60.30;99643.13;10247266;28;1080;-79
2023/09/23 12:09:34;;;;;;;;;;;;;;;18.61;60.13;99647.41;10247320;28;1961;-79
2023/09/23 12:14:30;;;;;;;;;;;;;;;18.59;60.21;99648.41;10247888;28;892;-79
2023/09/23 12:19:26;;;;;;;;;;;;;;;18.57;60.35;99648.47;10247199;28;961;-79
2023/09/23 12:24:22;;;;;;;;;;;;;;;18.61;60.14;99660.59;10247513;28;897;-79
2023/09/23 12:29:17;;;;;;;;;;;;;;;18.67;59.96;99666.50;10246811;28;1902;-79
2023/09/23 12:34:13;;;;;;;;;;;;;;;18.73;58.52;99661.81;10247151;28;814;-79
2023/09/23 12:39:10;;;;;;;;;;;;;;;18.72;59.36;99677.72;10246046;28;1179;-80
2023/09/23 12:44:06;;;;;;;;;;;;;;;18.77;59.31;99675.75;10246363;28;907;-80
2023/09/23 12:49:02;;;;;;;;;;;;;;;18.71;59.59;99684.78;10214499;28;1217;-79
2023/09/23 12:53:58;;;;;;;;;;;;;;;18.71;59.55;99689.22;10206047;28;1903;-79
2023/09/23 12:58:54;;;;;;;;;;;;;;;18.72;59.67;99694.41;10204853;28;1048;-80
2023/09/23 13:03:50;;;;;;;;;;;;;;;18.69;59.32;99694.56;10205302;28;766;-79
2023/09/23 13:08:46;;;;;;;;;;;;;;;18.70;59.58;99698.03;10204874;28;784;-80
2023/09/23 13:13:42;;;;;;;;;;;;;;;18.88;59.29;99706.91;10204888;28;1938;-79
2023/09/23 13:18:38;;;;;;;;;;;;;;;18.98;58.95;99703.75;10204568;28;863;-79
2023/09/23 13:23:34;;;;;;;;;;;;;;;19.07;58.83;99706.84;10204310;28;810;-79
2023/09/23 13:28:30;;;;;;;;;;;;;;;19.16;58.58;99709.06;10204148;28;986;-76
2023/09/23 13:33:26;;;;;;;;;;;;;;;19.26;58.40;99720.88;10204745;28;1898;-78
2023/09/23 13:38:22;;;;;;;;;;;;;;;19.37;58.29;99726.47;10203941;28;1641;-78
2023/09/23 13:43:18;;;;;;;;;;;;;;;19.40;58.46;99734.25;10203702;28;875;-76
2023/09/23 13:48:14;;;;;;;;;;;;;;;19.49;58.17;99733.81;10203109;28;870;-76
2023/09/23 13:53:10;;;;;;;;;;;;;;;19.19;58.90;99735.31;10204243;28;1919;-75
2023/09/23 13:58:07;;;;;;;;;;;;;;;19.11;59.20;99745.41;10202624;28;1206;-78
2023/09/23 14:03:03;;;;;;;;;;;;;;;19.44;58.28;99741.09;10203459;28;787;-76
2023/09/23 14:07:59;;;;;;;;;;;;;;;19.46;58.26;99747.16;10203270;28;919;-76
2023/09/23 14:12:55;;;;;;;;;;;;;;;19.37;58.44;99749.41;10203332;28;1964;-76
2023/09/23 14:17:51;;;;;;;;;;;;;;;19.15;59.07;99746.97;10203538;28;889;-76
2023/09/23 14:22:48;;;;;;;;;;;;;;;19.05;59.38;99755.34;10204107;28;874;-75
2023/09/23 14:27:44;;;;;;;;;;;;;;;19.01;59.38;99758.22;10202922;28;822;-75
2023/09/23 14:32:40;;;;;;;;;;;;;;;18.95;59.29;99764.66;10202164;28;1959;-75
2023/09/23 14:37:36;;;;;;;;;;;;;;;18.93;59.10;99766.50;10202928;28;1328;-79
2023/09/23 14:42:32;;;;;;;;;;;;;;;18.90;59.20;99774.56;10203183;28;856;-80
2023/09/23 14:47:28;;;;;;;;;;;;;;;18.90;59.08;99774.56;10202400;28;1110;-76
2023/09/23 14:52:24;;;;;;;;;;;;;;;18.94;58.96;99776.16;10201815;28;1910;-80
2023/09/23 14:57:20;;;;;;;;;;;;;;;19.11;58.72;99775.34;10202653;28;884;-83
2023/09/23 15:02:16;;;;;;;;;;;;;;;19.43;58.00;99780.81;10201928;28;846;-82
2023/09/23 15:07:12;;;;;;;;;;;;;;;19.21;58.19;99787.16;10205971;28;799;-84
2023/09/23 15:12:08;;;;;;;;;;;;;;;19.04;58.08;99790.59;10210099;28;1898;-79
2023/09/23 15:17:04;;;;;;;;;;;;;;;18.96;58.24;99808.59;10208347;28;1237;-79
2023/09/23 15:22:00;;;;;;;;;;;;;;;18.90;58.58;99808.91;10209120;28;879;-73
2023/09/23 15:26:56;;;;;;;;;;;;;;;18.89;58.32;99817.78;10208809;28;865;-72
2023/09/23 15:31:52;;;;;;;;;;;;;;;18.89;58.92;99832.72;10208535;28;1960;-73
2023/09/23 15:36:48;;;;;;;;;;;;;;;18.93;58.48;99835.16;10208612;28;1075;-75
2023/09/23 15:41:44;;;;;;;;;;;;;;;18.99;58.44;99837.53;10208382;28;907;-81
2023/09/23 15:46:40;;;;;;;;;;;;;;;19.00;58.59;99838.41;10208484;28;824;-79
2023/09/23 15:51:36;;;;;;;;;;;;;;;19.04;58.43;99853.16;10208251;28;1965;-75
2023/09/23 15:56:34;;;;;;;;;;;;;;;19.06;58.59;99853.94;10208056;28;880;-75
2023/09/23 16:01:30;;;;;;;;;;;;;;;19.10;59.27;99862.56;10223372;28;1381;-73
2023/09/23 16:06:26;;;;;;;;;;;;;;;19.12;58.84;99868.66;10247734;28;800;-74
2023/09/23 16:11:23;;;;;;;;;;;;;;;19.13;58.76;99871.22;10246733;28;1899;-74
2023/09/23 16:16:19;;;;;;;;;;;;;;;19.15;58.98;99882.59;10246907;28;1432;-74
2023/09/23 16:21:14;;;;;;;;;;;;;;;19.18;58.85;99892.16;10246895;28;852;-79
2023/09/23 16:26:10;;;;;;;;;;;;;;;19.21;58.89;99899.94;10246797;28;1412;-72
2023/09/23 16:31:06;;;;;;;;;;;;;;;19.24;58.87;99907.72;10245876;28;1894;-74
2023/09/23 16:36:03;;;;;;;;;;;;;;;19.19;58.96;99913.22;10246199;28;909;-72
2023/09/23 16:40:59;;;;;;;;;;;;;;;19.20;59.10;99919.34;10247610;28;1209;-72
2023/09/23 16:45:55;;;;;;;;;;;;;;;19.22;59.20;99923.63;10246409;28;861;-76
2023/09/23 16:50:51;;;;;;;;;;;;;;;19.22;59.30;99930.72;10244070;28;1969;-72
2023/09/23 16:55:47;;;;;;;;;;;;;;;19.25;59.39;99938.50;10246576;28;886;-72
2023/09/23 17:00:49;;;;;;;;;;;;;;;19.28;59.26;99938.34;10245958;28;850;-72
2023/09/23 17:05:45;;;;;;;;;;;;;;;19.30;59.32;99948.88;10245691;28;975;-73
2023/09/23 17:10:41;;;;;;;;;;;;;;;19.30;59.85;99948.88;10244932;28;1886;-73
2023/09/23 17:15:37;;;;;;;;;;;;;;;19.33;59.75;99964.56;10245631;28;916;-73
2023/09/23 17:20:33;;;;;;;;;;;;;;;19.34;59.78;99977.72;10245249;28;806;-72
2023/09/23 17:25:29;;;;;;;;;;;;;;;19.34;59.74;99979.53;10245609;28;861;-72
2023/09/23 17:30:24;;;;;;;;;;;;;;;19.33;59.86;99986.56;10245107;28;1943;-70
2023/09/23 17:35:20;;;;;;;;;;;;;;;19.34;59.75;100003.31;10245581;28;881;-71
2023/09/23 17:40:16;;;;;;;;;;;;;;;19.36;59.63;100014.66;10244051;28;1130;-69
2023/09/23 17:45:12;;;;;;;;;;;;;;;19.36;59.75;100023.47;10244456;28;1256;-69
2023/09/23 17:50:08;;;;;;;;;;;;;;;19.35;59.60;100032.28;10244272;28;1918;-69
2023/09/23 17:55:04;;;;;;;;;;;;;;;19.34;59.78;100041.16;10244184;28;858;-69
2023/09/23 18:00:00;;;;;;;;;;;;;;;19.36;59.58;100049.91;10243477;28;1130;-68
2023/09/23 18:04:55;;;;;;;;;;;;;;;19.38;59.49;100050.66;10244584;28;814;-71
2023/09/23 18:09:51;;;;;;;;;;;;;;;19.40;59.48;100059.38;10243781;28;1949;-71
2023/09/23 18:14:47;;;;;;;;;;;;;;;19.41;59.45;100066.41;10243155;28;1012;-72
2023/09/23 18:19:44;;;;;;;;;;;;;;;19.42;59.56;100065.47;10244929;28;881;-72
2023/09/23 18:24:40;;;;;;;;;;;;;;;19.41;59.57;100069.03;10244346;28;869;-71
2023/09/23 18:29:36;;;;;;;;;;;;;;;19.42;59.48;100078.69;10243397;28;1902;-71
2023/09/23 18:34:31;;;;;;;;;;;;;;;19.44;59.66;100084.75;10242798;28;961;-71
2023/09/23 18:39:27;;;;;;;;;;;;;;;19.46;59.43;100092.63;10243783;28;1496;-71
2023/09/23 18:44:23;;;;;;;;;;;;;;;19.45;59.41;100099.69;10249603;28;1032;-72
2023/09/23 18:49:19;;;;;;;;;;;;;;;19.46;59.44;100105.81;10250943;28;882;-71
2023/09/23 18:54:15;;;;;;;;;;;;;;;19.45;59.57;100110.25;10250772;28;1969;-71
2023/09/23 18:59:11;;;;;;;;;;;;;;;19.47;59.47;100120.78;10250847;28;766;-72
2023/09/23 19:04:07;;;;;;;;;;;;;;;19.48;59.46;100136.56;10250439;28;818;-72
2023/09/23 19:09:03;;;;;;;;;;;;;;;19.50;59.34;100144.44;10251149;28;900;-71
2023/09/23 19:13:59;;;;;;;;;;;;;;;19.47;59.29;100137.50;10250738;28;1902;-71
2023/09/23 19:18:56;;;;;;;;;;;;;;;19.49;59.17;100154.16;10250563;28;824;-71
2023/09/23 19:23:51;;;;;;;;;;;;;;;19.51;59.22;100163.78;10250455;28;971;-71
2023/09/23 19:28:47;;;;;;;;;;;;;;;19.49;59.49;100169.13;10249462;28;877;-72
2023/09/23 19:33:44;;;;;;;;;;;;;;;19.49;59.35;100169.13;10249799;28;1969;-71
2023/09/23 19:38:40;;;;;;;;;;;;;;;19.49;59.50;100167.38;10249208;28;1077;-71
2023/09/23 19:43:35;;;;;;;;;;;;;;;19.49;59.45;100172.66;10249757;28;893;-71
2023/09/23 19:48:32;;;;;;;;;;;;;;;19.48;59.41;100181.50;10249314;28;863;-69
2023/09/23 19:53:28;;;;;;;;;;;;;;;19.46;59.50;100191.28;10248530;28;1918;-71
2023/09/23 19:58:26;;;;;;;;;;;;;;;19.45;59.33;100191.38;10248541;28;860;-71
2023/09/23 20:03:22;;;;;;;;;;;;;;;19.43;59.61;100199.34;10248163;28;986;-72
2023/09/23 20:08:19;;;;;;;;;;;;;;;19.41;59.51;100200.34;10248668;28;894;-71
2023/09/23 20:13:15;;;;;;;;;;;;;;;19.38;59.51;100205.75;10247680;28;1906;-71
2023/09/23 20:18:10;;;;;;;;;;;;;;;19.37;59.72;100212.84;10248193;28;903;-72
2023/09/23 20:23:06;;;;;;;;;;;;;;;19.35;59.62;100216.47;10247462;28;783;-71
2023/09/23 20:28:02;;;;;;;;;;;;;;;19.32;59.72;100220.09;10247252;28;838;-71
2023/09/23 20:32:58;;;;;;;;;;;;;;;19.30;59.67;100224.59;10247519;28;1901;-71
2023/09/23 20:37:54;;;;;;;;;;;;;;;19.28;59.46;100229.06;10246860;28;1106;-71
2023/09/23 20:42:50;;;;;;;;;;;;;;;19.25;59.50;100232.69;10247812;28;789;-71
2023/09/23 20:47:46;;;;;;;;;;;;;;;19.25;59.36;100237.13;10246455;28;906;-71
2023/09/23 20:52:42;;;;;;;;;;;;;;;19.23;59.45;100242.50;10246262;28;1914;-71
2023/09/23 20:57:38;;;;;;;;;;;;;;;19.20;59.38;100239.09;10246857;28;868;-71
2023/09/23 21:02:34;;;;;;;;;;;;;;;19.19;59.40;100242.69;10247249;28;880;-71
2023/09/23 21:07:30;;;;;;;;;;;;;;;19.21;59.44;100256.69;10245986;28;906;-71
2023/09/23 21:12:26;;;;;;;;;;;;;;;19.23;59.63;100268.03;10245746;28;1898;-71
2023/09/23 21:17:22;;;;;;;;;;;;;;;19.20;59.54;100278.75;10245959;28;933;-71
2023/09/23 21:22:18;;;;;;;;;;;;;;;19.15;59.54;100278.97;10245246;28;794;-71
2023/09/23 21:27:14;;;;;;;;;;;;;;;19.15;59.13;100278.06;10245719;28;837;-71
2023/09/23 21:32:10;;;;;;;;;;;;;;;19.12;59.42;100278.19;10244751;28;1963;-71
2023/09/23 21:37:06;;;;;;;;;;;;;;;19.11;59.44;100284.41;10244134;28;1353;-71
2023/09/23 21:42:01;;;;;;;;;;;;;;;19.07;59.73;100293.38;10244033;28;949;-71
2023/09/23 21:46:58;;;;;;;;;;;;;;;19.04;59.50;100297.84;10245050;28;875;-71
2023/09/23 21:51:53;;;;;;;;;;;;;;;19.01;59.66;100310.34;10243605;28;1906;-71
2023/09/23 21:56:49;;;;;;;;;;;;;;;19.02;59.68;100312.94;10244147;28;767;-71
2023/09/23 22:01:46;;;;;;;;;;;;;;;19.00;59.84;100313.91;10244085;28;952;-71
2023/09/23 22:06:42;;;;;;;;;;;;;;;18.99;59.95;100315.69;10244154;28;779;-71
2023/09/23 22:11:38;;;;;;;;;;;;;;;18.98;60.05;100323.66;10244810;28;1898;-71
2023/09/23 22:16:34;;;;;;;;;;;;;;;18.95;59.75;100327.28;10247012;28;958;-72
2023/09/23 22:21:31;;;;;;;;;;;;;;;18.95;60.08;100332.56;10252655;28;845;-71
2023/09/23 22:26:27;;;;;;;;;;;;;;;18.92;60.01;100334.50;10252528;28;890;-71
2023/09/23 22:31:23;;;;;;;;;;;;;;;18.91;60.22;100328.31;10251638;28;1897;-71
2023/09/23 22:36:19;;;;;;;;;;;;;;;18.92;60.15;100335.34;10250892;28;1157;-71
2023/09/23 22:41:15;;;;;;;;;;;;;;;18.90;60.36;100331.91;10251819;28;1189;-71
2023/09/23 22:46:11;;;;;;;;;;;;;;;18.88;60.24;100336.38;10251145;28;921;-71
2023/09/23 22:51:07;;;;;;;;;;;;;;;18.87;60.25;100339.94;10251542;28;1978;-71
2023/09/23 22:56:03;;;;;;;;;;;;;;;18.85;60.24;100339.13;10250716;28;794;-71
2023/09/23 23:00:59;;;;;;;;;;;;;;;18.85;60.45;100341.78;10250107;28;948;-71
2023/09/23 23:05:56;;;;;;;;;;;;;;;18.84;60.35;100342.72;10250334;28;942;-72
2023/09/23 23:10:52;;;;;;;;;;;;;;;18.83;60.57;100352.38;10250702;28;1958;-71
2023/09/23 23:15:48;;;;;;;;;;;;;;;18.81;60.51;100356.88;10249624;28;984;-71
2023/09/23 23:20:46;;;;;;;;;;;;;;;18.82;60.58;100365.66;10250711;28;973;-71
2023/09/23 23:25:42;;;;;;;;;;;;;;;18.82;60.62;100368.31;10250389;28;881;-71
2023/09/23 23:30:38;;;;;;;;;;;;;;;18.80;60.60;100375.41;10249269;28;1894;-71
2023/09/23 23:35:37;;;;;;;;;;;;;;;18.78;60.61;100387.81;10249246;28;864;-71
2023/09/23 23:40:33;;;;;;;;;;;;;;;18.79;60.76;100392.19;10249339;28;1100;-71
2023/09/23 23:45:28;;;;;;;;;;;;;;;18.78;60.62;100396.59;10249399;28;1039;-71
2023/09/23 23:50:24;;;;;;;;;;;;;;;18.77;60.76;100399.31;10248762;28;1910;-71
2023/09/23 23:55:21;;;;;;;;;;;;;;;18.76;60.67;100403.72;10248547;28;847;-71
